IWG002 LEGR-LEXJ
Flight info
| Callsign | IWG002 |
|---|---|
| Flight time | 1h 7m |
| Altitude | 34000 |
| Route | VIBAS N865 XERMA ARLUN N865 UNGAS Y753 EMANU |
| Aircraft | A20N/M-SDE2E3FGHIJ1RWXY/LB1 |
Departure
| Time | 2026-05-06 14:45 |
|---|---|
| Airport | F.G.L. Airport Granada-Jaén Airport (LEGR) |
Arrival
| Time | 2026-05-06 15:53 |
|---|---|
| Airport | Seve Ballesteros-Santander Airport (LEXJ) |
| Time | Latitude | Longitude | Altitude | Speed | Heading |
|---|---|---|---|---|---|
| 2026-05-06 14:35 | 37.18651 | -3.77704 | 1860 ft | 0 kts | 269° |
| 2026-05-06 14:41 | 37.18651 | -3.77711 | 1860 ft | 2 kts | 269° |
| 2026-05-06 14:41 | 37.18651 | -3.77745 | 1860 ft | 6 kts | 269° |
| 2026-05-06 14:41 | 37.18651 | -3.77808 | 1859 ft | 8 kts | 279° |
| 2026-05-06 14:42 | 37.18676 | -3.77871 | 1859 ft | 11 kts | 297° |
| 2026-05-06 14:42 | 37.18701 | -3.77981 | 1859 ft | 15 kts | 275° |
| 2026-05-06 14:42 | 37.18702 | -3.78129 | 1858 ft | 19 kts | 269° |
| 2026-05-06 14:42 | 37.18700 | -3.78302 | 1857 ft | 21 kts | 270° |
| 2026-05-06 14:43 | 37.18698 | -3.78498 | 1856 ft | 24 kts | 269° |
| 2026-05-06 14:43 | 37.18697 | -3.78714 | 1855 ft | 26 kts | 269° |
| 2026-05-06 14:43 | 37.18695 | -3.78946 | 1853 ft | 27 kts | 269° |
| 2026-05-06 14:43 | 37.18695 | -3.79193 | 1852 ft | 29 kts | 270° |
| 2026-05-06 14:44 | 37.18768 | -3.79327 | 1851 ft | 0 kts | 354° |
| 2026-05-06 14:44 | 37.18823 | -3.79319 | 1850 ft | 20 kts | 20° |
| 2026-05-06 14:45 | 37.18866 | -3.78143 | 1858 ft | 124 kts | 90° |
| 2026-05-06 14:45 | 37.18883 | -3.76870 | 1906 ft | 163 kts | 90° |
| 2026-05-06 14:45 | 37.18780 | -3.75488 | 2465 ft | 160 kts | 102° |
| 2026-05-06 14:45 | 37.18454 | -3.74155 | 3003 ft | 162 kts | 94° |
| 2026-05-06 14:46 | 37.18272 | -3.72769 | 3526 ft | 164 kts | 90° |
| 2026-05-06 14:46 | 37.18325 | -3.71199 | 3802 ft | 187 kts | 79° |
| 2026-05-06 14:46 | 37.18523 | -3.69586 | 4592 ft | 193 kts | 77° |
| 2026-05-06 14:46 | 37.18786 | -3.67846 | 5087 ft | 214 kts | 81° |
| 2026-05-06 14:47 | 37.19175 | -3.65972 | 5651 ft | 232 kts | 57° |
| 2026-05-06 14:47 | 37.20357 | -3.64516 | 6098 ft | 255 kts | 29° |
| 2026-05-06 14:47 | 37.21967 | -3.63466 | 6839 ft | 262 kts | 11° |
| 2026-05-06 14:47 | 37.23768 | -3.63218 | 7863 ft | 261 kts | 354° |
| 2026-05-06 14:48 | 37.25616 | -3.63378 | 8663 ft | 275 kts | 356° |
| 2026-05-06 14:48 | 37.27594 | -3.63418 | 9305 ft | 291 kts | 359° |
| 2026-05-06 14:48 | 37.29638 | -3.63364 | 10221 ft | 296 kts | 1° |
| 2026-05-06 14:48 | 37.31783 | -3.63272 | 10656 ft | 319 kts | 1° |
| 2026-05-06 14:49 | 37.34028 | -3.63181 | 11013 ft | 341 kts | 1° |
| 2026-05-06 14:49 | 37.36437 | -3.63106 | 11649 ft | 350 kts | 359° |
| 2026-05-06 14:49 | 37.38878 | -3.63059 | 12555 ft | 352 kts | 359° |
| 2026-05-06 14:49 | 37.41346 | -3.63034 | 13433 ft | 357 kts | 358° |
| 2026-05-06 14:50 | 37.43845 | -3.63030 | 14171 ft | 362 kts | 358° |
| 2026-05-06 14:50 | 37.46375 | -3.63025 | 14940 ft | 365 kts | 358° |
| 2026-05-06 14:50 | 37.48934 | -3.63010 | 15668 ft | 370 kts | 358° |
| 2026-05-06 14:50 | 37.51526 | -3.62980 | 16385 ft | 374 kts | 358° |
| 2026-05-06 14:51 | 37.54161 | -3.62947 | 17077 ft | 379 kts | 358° |
| 2026-05-06 14:51 | 37.56812 | -3.62918 | 17782 ft | 384 kts | 358° |
| 2026-05-06 14:51 | 37.59494 | -3.62893 | 18446 ft | 388 kts | 358° |
| 2026-05-06 14:51 | 37.62206 | -3.62871 | 19058 ft | 391 kts | 358° |
| 2026-05-06 14:52 | 37.64938 | -3.62849 | 19713 ft | 394 kts | 357° |
| 2026-05-06 14:52 | 37.67702 | -3.62828 | 20272 ft | 399 kts | 357° |
| 2026-05-06 14:52 | 37.70488 | -3.62806 | 20916 ft | 402 kts | 357° |
| 2026-05-06 14:52 | 37.73299 | -3.62784 | 21541 ft | 405 kts | 357° |
| 2026-05-06 14:53 | 37.76136 | -3.62762 | 22169 ft | 409 kts | 357° |
| 2026-05-06 14:53 | 37.78952 | -3.62740 | 22776 ft | 412 kts | 356° |
| 2026-05-06 14:53 | 37.81831 | -3.62718 | 23388 ft | 415 kts | 356° |
| 2026-05-06 14:53 | 37.84730 | -3.62695 | 23867 ft | 419 kts | 356° |
| 2026-05-06 14:54 | 37.87659 | -3.62672 | 24319 ft | 423 kts | 356° |
| 2026-05-06 14:54 | 37.90622 | -3.62650 | 24774 ft | 427 kts | 356° |
| 2026-05-06 14:54 | 37.93613 | -3.62629 | 25222 ft | 430 kts | 355° |
| 2026-05-06 14:54 | 37.96624 | -3.62610 | 25634 ft | 435 kts | 355° |
| 2026-05-06 14:55 | 37.99664 | -3.62591 | 26074 ft | 438 kts | 355° |
| 2026-05-06 14:55 | 38.02721 | -3.62571 | 26492 ft | 442 kts | 355° |
| 2026-05-06 14:55 | 38.05818 | -3.62548 | 26916 ft | 446 kts | 355° |
| 2026-05-06 14:55 | 38.08936 | -3.62521 | 27305 ft | 449 kts | 355° |
| 2026-05-06 14:56 | 38.12075 | -3.62496 | 27689 ft | 453 kts | 355° |
| 2026-05-06 14:56 | 38.15205 | -3.62461 | 28021 ft | 459 kts | 357° |
| 2026-05-06 14:56 | 38.18413 | -3.62176 | 28397 ft | 464 kts | 359° |
| 2026-05-06 14:56 | 38.21639 | -3.61860 | 28744 ft | 467 kts | 359° |
| 2026-05-06 14:57 | 38.24902 | -3.61544 | 29080 ft | 471 kts | 359° |
| 2026-05-06 14:57 | 38.28178 | -3.61226 | 29410 ft | 475 kts | 359° |
| 2026-05-06 14:57 | 38.31489 | -3.60904 | 29739 ft | 478 kts | 359° |
| 2026-05-06 14:57 | 38.34823 | -3.60581 | 30041 ft | 482 kts | 359° |
| 2026-05-06 14:58 | 38.38184 | -3.60254 | 30366 ft | 484 kts | 359° |
| 2026-05-06 14:58 | 38.41552 | -3.59953 | 30668 ft | 486 kts | 359° |
| 2026-05-06 14:58 | 38.43736 | -3.59745 | 30885 ft | 488 kts | 359° |
| 2026-05-06 14:58 | 38.47179 | -3.59395 | 31292 ft | 488 kts | 358° |
| 2026-05-06 14:59 | 38.50574 | -3.59054 | 31688 ft | 488 kts | 359° |
| 2026-05-06 14:59 | 38.53957 | -3.58708 | 32097 ft | 487 kts | 358° |
| 2026-05-06 14:59 | 38.57338 | -3.58382 | 32496 ft | 486 kts | 357° |
| 2026-05-06 14:59 | 38.60711 | -3.58085 | 32885 ft | 486 kts | 356° |
| 2026-05-06 15:00 | 38.64082 | -3.57805 | 33277 ft | 485 kts | 356° |
| 2026-05-06 15:00 | 38.67444 | -3.57491 | 33686 ft | 484 kts | 357° |
| 2026-05-06 15:00 | 38.70773 | -3.57163 | 33869 ft | 483 kts | 357° |
| 2026-05-06 15:01 | 38.77431 | -3.56479 | 33898 ft | 481 kts | 358° |
| 2026-05-06 15:01 | 38.84064 | -3.55786 | 33899 ft | 481 kts | 358° |
| 2026-05-06 15:02 | 38.90731 | -3.55097 | 33900 ft | 480 kts | 358° |
| 2026-05-06 15:02 | 38.97386 | -3.54424 | 33905 ft | 480 kts | 357° |
| 2026-05-06 15:03 | 39.04050 | -3.53815 | 33912 ft | 479 kts | 358° |
| 2026-05-06 15:03 | 39.10745 | -3.53128 | 33906 ft | 479 kts | 359° |
| 2026-05-06 15:04 | 39.17357 | -3.52495 | 33912 ft | 478 kts | 356° |
| 2026-05-06 15:04 | 39.23996 | -3.51890 | 33915 ft | 478 kts | 358° |
| 2026-05-06 15:05 | 39.30598 | -3.51219 | 33914 ft | 477 kts | 359° |
| 2026-05-06 15:05 | 39.37221 | -3.50512 | 33919 ft | 476 kts | 359° |
| 2026-05-06 15:06 | 39.43817 | -3.49839 | 33916 ft | 475 kts | 359° |
| 2026-05-06 15:06 | 39.50415 | -3.49187 | 33917 ft | 474 kts | 359° |
| 2026-05-06 15:07 | 39.56984 | -3.48526 | 33919 ft | 473 kts | 359° |
| 2026-05-06 15:07 | 39.63541 | -3.47868 | 33918 ft | 472 kts | 359° |
| 2026-05-06 15:08 | 39.70047 | -3.47217 | 33921 ft | 471 kts | 359° |
| 2026-05-06 15:08 | 39.76543 | -3.46575 | 33924 ft | 469 kts | 358° |
| 2026-05-06 15:09 | 39.83028 | -3.46922 | 33926 ft | 462 kts | 350° |
| 2026-05-06 15:09 | 39.89444 | -3.47564 | 33928 ft | 462 kts | 351° |
| 2026-05-06 15:10 | 39.95843 | -3.48195 | 33926 ft | 461 kts | 351° |
| 2026-05-06 15:10 | 40.02242 | -3.48839 | 33935 ft | 460 kts | 351° |
| 2026-05-06 15:11 | 40.08610 | -3.49472 | 33937 ft | 459 kts | 351° |
| 2026-05-06 15:11 | 40.14977 | -3.50125 | 33936 ft | 458 kts | 351° |
| 2026-05-06 15:12 | 40.20867 | -3.50739 | 33935 ft | 457 kts | 351° |
| 2026-05-06 15:12 | 40.27205 | -3.51382 | 33938 ft | 457 kts | 351° |
| 2026-05-06 15:13 | 40.33537 | -3.52015 | 33935 ft | 456 kts | 351° |
| 2026-05-06 15:13 | 40.39858 | -3.52647 | 33936 ft | 455 kts | 352° |
| 2026-05-06 15:14 | 40.45543 | -3.53240 | 33945 ft | 454 kts | 351° |
| 2026-05-06 15:14 | 40.51161 | -3.53824 | 33941 ft | 453 kts | 351° |
| 2026-05-06 15:15 | 40.57446 | -3.54446 | 33943 ft | 453 kts | 352° |
| 2026-05-06 15:15 | 40.63719 | -3.55083 | 33947 ft | 451 kts | 351° |
| 2026-05-06 15:16 | 40.69804 | -3.55715 | 33964 ft | 450 kts | 351° |
| 2026-05-06 15:16 | 40.76089 | -3.56358 | 33960 ft | 449 kts | 351° |
| 2026-05-06 15:17 | 40.82317 | -3.57006 | 33951 ft | 448 kts | 351° |
| 2026-05-06 15:17 | 40.88546 | -3.57658 | 33950 ft | 448 kts | 351° |
| 2026-05-06 15:18 | 40.94781 | -3.58311 | 33948 ft | 447 kts | 351° |
| 2026-05-06 15:18 | 41.00953 | -3.58958 | 33942 ft | 447 kts | 351° |
| 2026-05-06 15:19 | 41.07157 | -3.59608 | 33946 ft | 447 kts | 351° |
| 2026-05-06 15:19 | 41.13359 | -3.60259 | 33947 ft | 447 kts | 351° |
| 2026-05-06 15:20 | 41.19602 | -3.60560 | 33946 ft | 449 kts | 355° |
| 2026-05-06 15:20 | 41.25809 | -3.60719 | 33954 ft | 448 kts | 354° |
| 2026-05-06 15:21 | 41.32051 | -3.60882 | 33953 ft | 448 kts | 354° |
| 2026-05-06 15:21 | 41.38295 | -3.61044 | 33956 ft | 448 kts | 355° |
| 2026-05-06 15:22 | 41.44542 | -3.61204 | 33959 ft | 448 kts | 355° |
| 2026-05-06 15:22 | 41.50764 | -3.61364 | 33950 ft | 448 kts | 355° |
| 2026-05-06 15:23 | 41.57012 | -3.61393 | 33953 ft | 448 kts | 356° |
| 2026-05-06 15:23 | 41.63218 | -3.61365 | 33961 ft | 448 kts | 356° |
| 2026-05-06 15:24 | 41.69486 | -3.61357 | 33958 ft | 448 kts | 356° |
| 2026-05-06 15:24 | 41.75683 | -3.61409 | 33949 ft | 447 kts | 354° |
| 2026-05-06 15:25 | 41.81915 | -3.61423 | 33952 ft | 448 kts | 356° |
| 2026-05-06 15:25 | 41.88165 | -3.61383 | 33956 ft | 448 kts | 356° |
| 2026-05-06 15:26 | 41.94402 | -3.61372 | 33957 ft | 448 kts | 356° |
| 2026-05-06 15:26 | 42.00625 | -3.61365 | 33965 ft | 448 kts | 356° |
| 2026-05-06 15:27 | 42.06811 | -3.61530 | 33975 ft | 446 kts | 353° |
| 2026-05-06 15:27 | 42.13013 | -3.62009 | 33978 ft | 445 kts | 353° |
| 2026-05-06 15:28 | 42.19219 | -3.62448 | 33991 ft | 445 kts | 353° |
| 2026-05-06 15:28 | 42.25394 | -3.62841 | 33995 ft | 445 kts | 353° |
| 2026-05-06 15:29 | 42.31556 | -3.63235 | 33995 ft | 445 kts | 353° |
| 2026-05-06 15:29 | 42.37697 | -3.63877 | 34000 ft | 442 kts | 347° |
| 2026-05-06 15:30 | 42.43774 | -3.65103 | 33997 ft | 441 kts | 348° |
| 2026-05-06 15:30 | 42.49854 | -3.66308 | 33995 ft | 441 kts | 348° |
| 2026-05-06 15:31 | 42.55931 | -3.67516 | 33992 ft | 441 kts | 348° |
| 2026-05-06 15:31 | 42.61999 | -3.68727 | 33992 ft | 440 kts | 348° |
| 2026-05-06 15:32 | 42.71022 | -3.70795 | 34001 ft | 438 kts | 344° |
| 2026-05-06 15:32 | 42.76986 | -3.72552 | 34003 ft | 438 kts | 344° |
| 2026-05-06 15:33 | 42.82925 | -3.74292 | 34006 ft | 438 kts | 344° |
| 2026-05-06 15:33 | 42.88891 | -3.76048 | 34012 ft | 437 kts | 344° |
| 2026-05-06 15:34 | 42.94820 | -3.77798 | 34018 ft | 437 kts | 345° |
| 2026-05-06 15:34 | 43.00858 | -3.78636 | 34016 ft | 444 kts | 3° |
| 2026-05-06 15:35 | 43.03903 | -3.77780 | 34009 ft | 448 kts | 14° |
| 2026-05-06 15:35 | 43.06816 | -3.76176 | 33936 ft | 450 kts | 25° |
| 2026-05-06 15:35 | 43.09437 | -3.73822 | 33821 ft | 458 kts | 37° |
| 2026-05-06 15:35 | 43.11706 | -3.70698 | 33429 ft | 464 kts | 49° |
| 2026-05-06 15:36 | 43.13478 | -3.66989 | 32771 ft | 468 kts | 61° |
| 2026-05-06 15:36 | 43.14681 | -3.62844 | 31889 ft | 472 kts | 73° |
| 2026-05-06 15:36 | 43.15248 | -3.58414 | 31004 ft | 475 kts | 86° |
| 2026-05-06 15:36 | 43.15284 | -3.53873 | 30136 ft | 476 kts | 90° |
| 2026-05-06 15:37 | 43.15242 | -3.49343 | 29135 ft | 477 kts | 90° |
| 2026-05-06 15:37 | 43.15196 | -3.44800 | 28171 ft | 476 kts | 90° |
| 2026-05-06 15:37 | 43.15147 | -3.40312 | 27244 ft | 476 kts | 90° |
| 2026-05-06 15:37 | 43.15181 | -3.35730 | 26318 ft | 473 kts | 83° |
| 2026-05-06 15:38 | 43.15805 | -3.31376 | 25445 ft | 470 kts | 71° |
| 2026-05-06 15:38 | 43.17055 | -3.27294 | 24611 ft | 466 kts | 60° |
| 2026-05-06 15:38 | 43.18887 | -3.23655 | 23785 ft | 461 kts | 47° |
| 2026-05-06 15:38 | 43.21109 | -3.20768 | 23000 ft | 454 kts | 36° |
| 2026-05-06 15:39 | 43.23767 | -3.18530 | 22193 ft | 446 kts | 24° |
| 2026-05-06 15:39 | 43.26678 | -3.17143 | 21403 ft | 438 kts | 11° |
| 2026-05-06 15:39 | 43.29688 | -3.16677 | 20637 ft | 431 kts | 0° |
| 2026-05-06 15:39 | 43.32680 | -3.16616 | 19887 ft | 427 kts | 359° |
| 2026-05-06 15:40 | 43.35545 | -3.16570 | 19177 ft | 423 kts | 359° |
| 2026-05-06 15:40 | 43.38466 | -3.16524 | 18466 ft | 419 kts | 359° |
| 2026-05-06 15:40 | 43.40396 | -3.16492 | 17941 ft | 416 kts | 359° |
| 2026-05-06 15:40 | 43.43277 | -3.16441 | 17136 ft | 412 kts | 359° |
| 2026-05-06 15:41 | 43.46138 | -3.16382 | 16354 ft | 408 kts | 359° |
| 2026-05-06 15:41 | 43.49870 | -3.16296 | 15350 ft | 403 kts | 359° |
| 2026-05-06 15:41 | 43.51752 | -3.16471 | 14850 ft | 398 kts | 349° |
| 2026-05-06 15:41 | 43.54360 | -3.17614 | 14112 ft | 391 kts | 332° |
| 2026-05-06 15:42 | 43.56573 | -3.19730 | 13347 ft | 385 kts | 315° |
| 2026-05-06 15:42 | 43.58178 | -3.22598 | 12567 ft | 381 kts | 297° |
| 2026-05-06 15:42 | 43.59059 | -3.26003 | 11799 ft | 377 kts | 280° |
| 2026-05-06 15:42 | 43.59120 | -3.29589 | 11041 ft | 375 kts | 262° |
| 2026-05-06 15:43 | 43.58345 | -3.33003 | 10311 ft | 374 kts | 243° |
| 2026-05-06 15:43 | 43.56808 | -3.35867 | 9545 ft | 373 kts | 224° |
| 2026-05-06 15:43 | 43.54711 | -3.37838 | 8771 ft | 373 kts | 206° |
| 2026-05-06 15:43 | 43.52236 | -3.38885 | 8003 ft | 373 kts | 193° |
| 2026-05-06 15:44 | 43.49679 | -3.39505 | 7249 ft | 371 kts | 189° |
| 2026-05-06 15:44 | 43.47138 | -3.39991 | 6616 ft | 366 kts | 189° |
| 2026-05-06 15:44 | 43.44652 | -3.40455 | 6243 ft | 355 kts | 189° |
| 2026-05-06 15:44 | 43.42255 | -3.40922 | 5842 ft | 340 kts | 190° |
| 2026-05-06 15:45 | 43.39972 | -3.41388 | 5460 ft | 323 kts | 190° |
| 2026-05-06 15:45 | 43.37805 | -3.41844 | 5076 ft | 307 kts | 191° |
| 2026-05-06 15:45 | 43.35763 | -3.42411 | 4792 ft | 289 kts | 202° |
| 2026-05-06 15:45 | 43.34221 | -3.43909 | 4656 ft | 261 kts | 236° |
| 2026-05-06 15:46 | 43.33634 | -3.46100 | 4545 ft | 238 kts | 268° |
| 2026-05-06 15:46 | 43.33775 | -3.48273 | 4424 ft | 229 kts | 284° |
| 2026-05-06 15:46 | 43.34240 | -3.50388 | 4327 ft | 231 kts | 290° |
| 2026-05-06 15:46 | 43.34795 | -3.52405 | 4201 ft | 214 kts | 290° |
| 2026-05-06 15:47 | 43.35278 | -3.54216 | 3973 ft | 190 kts | 290° |
| 2026-05-06 15:47 | 43.35705 | -3.55801 | 3803 ft | 165 kts | 290° |
| 2026-05-06 15:47 | 43.36081 | -3.57217 | 3606 ft | 150 kts | 290° |
| 2026-05-06 15:47 | 43.36423 | -3.58495 | 3408 ft | 137 kts | 290° |
| 2026-05-06 15:48 | 43.36757 | -3.59746 | 3251 ft | 145 kts | 290° |
| 2026-05-06 15:48 | 43.37111 | -3.61070 | 3051 ft | 147 kts | 290° |
| 2026-05-06 15:48 | 43.37460 | -3.62367 | 2853 ft | 143 kts | 290° |
| 2026-05-06 15:48 | 43.37800 | -3.63639 | 2674 ft | 139 kts | 290° |
| 2026-05-06 15:49 | 43.38118 | -3.64837 | 2477 ft | 128 kts | 291° |
| 2026-05-06 15:49 | 43.38421 | -3.65960 | 2315 ft | 126 kts | 291° |
| 2026-05-06 15:49 | 43.38727 | -3.67110 | 2142 ft | 130 kts | 291° |
| 2026-05-06 15:49 | 43.39036 | -3.68266 | 1961 ft | 127 kts | 291° |
| 2026-05-06 15:50 | 43.39337 | -3.69394 | 1797 ft | 127 kts | 291° |
| 2026-05-06 15:50 | 43.39642 | -3.70537 | 1618 ft | 128 kts | 291° |
| 2026-05-06 15:50 | 43.39951 | -3.71687 | 1455 ft | 130 kts | 291° |
| 2026-05-06 15:50 | 43.40260 | -3.72845 | 1255 ft | 126 kts | 291° |
| 2026-05-06 15:51 | 43.40559 | -3.73965 | 1081 ft | 128 kts | 291° |
| 2026-05-06 15:51 | 43.40868 | -3.75123 | 904 ft | 129 kts | 291° |
| 2026-05-06 15:51 | 43.41177 | -3.76278 | 727 ft | 128 kts | 292° |
| 2026-05-06 15:51 | 43.41489 | -3.77448 | 550 ft | 131 kts | 292° |
| 2026-05-06 15:52 | 43.41804 | -3.78626 | 376 ft | 131 kts | 293° |
| 2026-05-06 15:52 | 43.42116 | -3.79795 | 218 ft | 131 kts | 292° |
| 2026-05-06 15:52 | 43.42434 | -3.80990 | 33 ft | 132 kts | 292° |
| 2026-05-06 15:52 | 43.42679 | -3.81908 | 21 ft | 56 kts | 290° |
| 2026-05-06 15:53 | 43.42736 | -3.82144 | 18 ft | 20 kts | 272° |
| 2026-05-06 15:53 | 43.42651 | -3.82269 | 20 ft | 19 kts | 210° |
| 2026-05-06 15:53 | 43.42516 | -3.82335 | 20 ft | 22 kts | 195° |
| 2026-05-06 15:53 | 43.42400 | -3.82340 | 20 ft | 0 kts | 155° |